Time;durP1;ratioP1;P1;durP2;ratioP2;P2;SDS_P1;SDS_P2;PMS_P1;PMS_P2;Temp;Humidity;BMP_temperature;BMP_pressure;BME280_temperature;BME280_humidity;BME280_pressure;Samples;Min_cycle;Max_cycle;Signal;HPM_P1;HPM_P2
2022/10/17 00:01:59;;;;;;;13.18;3.47;;;;;;;;;;5014349;28;20481;-70
2022/10/17 00:04:25;;;;;;;9.88;3.22;;;;;;;;;;5032512;28;20037;-70
2022/10/17 00:06:51;;;;;;;13.43;2.80;;;;;;;;;;5014577;28;20037;-70
2022/10/17 00:09:17;;;;;;;8.77;2.97;;;;;;;;;;5014459;28;20563;-70
2022/10/17 00:11:43;;;;;;;11.30;3.17;;;;;;;;;;5014310;28;20045;-70
2022/10/17 00:14:09;;;;;;;10.82;3.20;;;;;;;;;;5014756;28;20163;-70
2022/10/17 00:16:36;;;;;;;14.35;4.40;;;;;;;;;;4998098;28;20033;-70
2022/10/17 00:19:03;;;;;;;9.13;2.75;;;;;;;;;;5014864;28;20401;-70
2022/10/17 00:21:29;;;;;;;14.80;3.20;;;;;;;;;;5014355;28;20734;-70
2022/10/17 00:23:55;;;;;;;11.25;3.30;;;;;;;;;;5031921;28;20125;-70
2022/10/17 00:26:22;;;;;;;12.93;3.42;;;;;;;;;;5014448;28;20481;-70
2022/10/17 00:28:48;;;;;;;10.13;3.10;;;;;;;;;;5014631;28;20048;-70
2022/10/17 00:31:14;;;;;;;11.75;3.33;;;;;;;;;;5014268;28;20099;-70
2022/10/17 00:33:42;;;;;;;14.23;4.15;;;;;;;;;;5013767;28;20125;-70
2022/10/17 00:36:12;;;;;;;13.60;3.45;;;;;;;;;;5031974;28;20037;-70
2022/10/17 00:38:39;;;;;;;9.45;2.97;;;;;;;;;;5032146;28;20037;-70
2022/10/17 00:41:05;;;;;;;13.70;3.15;;;;;;;;;;5014184;28;20053;-70
2022/10/17 00:43:48;;;;;;;10.35;3.25;;;;;;;;;;5011864;28;20047;-70
2022/10/17 00:46:14;;;;;;;8.68;3.50;;;;;;;;;;5014187;28;20072;-70
2022/10/17 00:48:40;;;;;;;7.68;2.97;;;;;;;;;;5031978;28;20037;-70
2022/10/17 00:51:06;;;;;;;5.82;3.00;;;;;;;;;;5013546;28;20048;-70
2022/10/17 00:53:33;;;;;;;8.45;3.10;;;;;;;;;;5014660;28;20045;-70
2022/10/17 00:55:59;;;;;;;7.20;3.03;;;;;;;;;;5013883;28;20044;-70
2022/10/17 00:58:25;;;;;;;9.50;3.78;;;;;;;;;;5014142;28;20432;-70
2022/10/17 01:00:51;;;;;;;7.43;3.20;;;;;;;;;;5014192;28;20091;-70
2022/10/17 01:03:17;;;;;;;12.27;3.60;;;;;;;;;;5031779;28;20040;-70
2022/10/17 01:05:43;;;;;;;11.02;3.40;;;;;;;;;;5014010;28;20084;-70
2022/10/17 01:08:10;;;;;;;9.05;3.75;;;;;;;;;;5011416;28;20481;-70
2022/10/17 01:10:52;;;;;;;12.93;3.40;;;;;;;;;;5013934;28;20038;-70
2022/10/17 01:13:28;;;;;;;9.80;3.70;;;;;;;;;;5029953;28;20042;-70
2022/10/17 01:16:11;;;;;;;9.50;3.40;;;;;;;;;;5013956;28;20385;-70
2022/10/17 01:18:51;;;;;;;10.20;3.80;;;;;;;;;;5031374;28;20049;-70
2022/10/17 01:21:20;;;;;;;6.43;3.40;;;;;;;;;;5014040;28;20045;-70
2022/10/17 01:23:46;;;;;;;8.55;3.78;;;;;;;;;;5013821;28;20057;-70
2022/10/17 01:26:49;;;;;;;9.02;3.58;;;12.90;99.90;;;;;;5013944;28;20094;-70
2022/10/17 01:29:21;;;;;;;8.82;4.10;;;;;;;;;;5013751;28;20038;-70
2022/10/17 01:32:08;;;;;;;6.72;3.60;;;;;;;;;;5013945;28;20125;-70
2022/10/17 01:34:40;;;;;;;16.15;5.05;;;;;;;;;;4964973;28;20052;-70
2022/10/17 01:37:11;;;;;;;11.18;4.10;;;;;;;;;;5031612;28;20432;-70
2022/10/17 01:39:44;;;;;;;12.70;5.05;;;;;;;;;;5031454;28;20045;-70
2022/10/17 01:42:23;;;;;;;13.02;4.63;;;;;;;;;;5013885;28;20132;-70
2022/10/17 01:44:49;;;;;;;14.75;4.75;;;;;;;;;;5031409;28;20097;-70
2022/10/17 01:47:18;;;;;;;10.43;4.80;;;;;;;;;;5013262;28;20046;-70
2022/10/17 01:49:45;;;;;;;19.75;4.60;;;;;;;;;;5032497;28;20044;-70
2022/10/17 01:52:16;;;;;;;13.23;4.70;;;;;;;;;;5017244;28;20041;-70
2022/10/17 01:54:45;;;;;;;10.43;4.88;;;;;;;;;;5017229;28;20037;-70
2022/10/17 01:57:15;;;;;;;11.57;4.40;;;;;;;;;;5017152;28;20041;-70
2022/10/17 01:59:43;;;;;;;18.15;5.05;;;;;;;;;;5034720;28;20087;-70
2022/10/17 02:02:11;;;;;;;13.95;5.32;;;;;;;;;;5017301;28;20065;-70
2022/10/17 02:04:37;;;;;;;10.10;5.10;;;;;;;;;;5033881;28;20417;-70
2022/10/17 02:07:10;;;;;;;10.75;5.50;;;;;;;;;;5000415;28;20042;-70
2022/10/17 02:09:37;;;;;;;12.68;4.97;;;;;;;;;;5000292;28;20259;-70
2022/10/17 02:12:03;;;;;;;11.50;5.05;;;;;;;;;;5000440;28;20087;-70
2022/10/17 02:14:39;;;;;;;10.27;4.85;;;;;;;;;;5016655;28;20068;-69
2022/10/17 02:17:05;;;;;;;12.60;5.07;;;;;;;;;;5033349;28;20039;-70
2022/10/17 02:19:40;;;;;;;10.38;5.50;;;;;;;;;;5000167;28;20076;-70
2022/10/17 02:22:15;;;;;;;8.70;4.93;;;;;;;;;;5034583;28;20034;-70
2022/10/17 02:24:41;;;;;;;11.52;5.18;;;;;;;;;;5016282;28;20539;-70
2022/10/17 02:27:25;;;;;;;13.05;5.20;;;;;;;;;;5016572;28;20084;-70
2022/10/17 02:30:06;;;;;;;10.68;6.15;;;;;;;;;;5016277;28;20042;-70
2022/10/17 02:32:52;;;;;;;7.72;4.90;;;;;;;;;;5034268;28;20117;-70
2022/10/17 02:35:19;;;;;;;11.07;5.53;;;;;;;;;;5034356;28;20029;-70
2022/10/17 02:37:46;;;;;;;11.70;5.80;;;;;;;;;;5016288;28;20041;-70
2022/10/17 02:40:13;;;;;;;9.70;5.85;;;;;;;;;;5016324;28;20034;-70
2022/10/17 02:42:42;;;;;;;10.18;5.45;;;;;;;;;;5015920;28;20041;-70
2022/10/17 02:45:08;;;;;;;11.85;5.68;;;;;;;;;;5033951;28;20033;-70
2022/10/17 02:47:36;;;;;;;11.70;6.15;;;;;;;;;;5033901;28;20033;-70
2022/10/17 02:50:02;;;;;;;12.63;5.93;;;;;;;;;;5016032;28;20144;-70
2022/10/17 02:52:35;;;;;;;9.00;5.90;;;;;;;;;;5022737;28;20048;-70
2022/10/17 02:55:05;;;;;;;14.73;6.05;;;;;;;;;;5016053;28;20048;-70
2022/10/17 02:57:44;;;;;;;13.73;6.32;;;;;;;;;;5015984;28;20099;-70
2022/10/17 03:00:11;;;;;;;13.90;5.68;;;;;;;;;;5015084;28;20057;-70
2022/10/17 03:02:38;;;;;;;11.55;6.65;;;;;;;;;;5015808;28;20185;-70
2022/10/17 03:05:04;;;;;;;12.38;6.63;;;;;;;;;;5016051;28;20048;-70
2022/10/17 03:07:30;;;;;;;11.20;6.65;;;;;;;;;;5011886;28;20077;-70
2022/10/17 03:09:56;;;;;;;11.18;5.97;;;;;;;;;;5015467;28;20064;-70
2022/10/17 03:12:22;;;;;;;11.52;6.97;;;;;;;;;;5031003;28;20033;-70
2022/10/17 03:14:48;;;;;;;13.32;7.40;;;;;;;;;;5033566;28;20048;-70
2022/10/17 03:17:14;;;;;;;16.15;7.53;;;;;;;;;;5015533;28;20044;-70
2022/10/17 03:19:40;;;;;;;13.27;6.90;;;;;;;;;;5015788;28;20069;-70
2022/10/17 03:22:06;;;;;;;11.95;7.03;;;;;;;;;;5015208;28;20121;-70
2022/10/17 03:24:32;;;;;;;13.18;7.38;;;;;;;;;;5033115;28;20136;-70
2022/10/17 03:26:58;;;;;;;14.75;8.02;;;;;;;;;;5015591;28;20033;-70
2022/10/17 03:29:24;;;;;;;17.35;8.00;;;;;;;;;;5015703;28;20132;-70
2022/10/17 03:31:51;;;;;;;15.20;8.13;;;;;;;;;;5015312;28;20087;-70
2022/10/17 03:34:17;;;;;;;14.80;8.40;;;;;;;;;;5014906;28;20048;-70
2022/10/17 03:36:44;;;;;;;12.75;8.95;;;;;;;;;;5015327;28;20124;-70
2022/10/17 03:39:10;;;;;;;13.60;8.82;;;;;;;;;;5015017;28;20088;-71
2022/10/17 03:41:36;;;;;;;13.55;8.85;;;;;;;;;;5032609;28;20038;-69
2022/10/17 03:44:02;;;;;;;19.08;9.10;;;;;;;;;;5029486;28;20069;-69
2022/10/17 03:46:28;;;;;;;12.65;8.30;;;;;;;;;;5015221;28;20041;-69
2022/10/17 03:48:54;;;;;;;12.32;8.82;;;;;;;;;;5014445;28;20126;-70
2022/10/17 03:51:20;;;;;;;14.20;9.52;;;;;;;;;;4998464;28;20124;-70
2022/10/17 03:53:46;;;;;;;15.65;9.35;;;;;;;;;;5014802;28;20041;-70
2022/10/17 03:56:14;;;;;;;11.52;9.30;;;;;;;;;;5014717;28;20037;-70
2022/10/17 03:58:40;;;;;;;15.90;10.10;;;;;;;;;;5032698;28;20086;-70
2022/10/17 04:01:07;;;;;;;16.90;9.85;;;;;;;;;;5014566;28;20037;-70
2022/10/17 04:03:33;;;;;;;17.92;9.82;;;;;;;;;;5014234;28;20041;-70
2022/10/17 04:06:00;;;;;;;15.88;9.93;;;;;;;;;;5014458;28;20041;-70
2022/10/17 04:08:26;;;;;;;13.98;9.75;;;;;;;;;;5014280;28;20053;-70
2022/10/17 04:10:52;;;;;;;14.18;10.00;;;;;;;;;;5031790;28;20040;-70
2022/10/17 04:13:18;;;;;;;14.43;10.00;;;;;;;;;;5031747;28;20381;-70
2022/10/17 04:15:55;;;;;;;15.05;9.77;;;;;;;;;;5014446;28;20045;-70
2022/10/17 04:18:21;;;;;;;14.52;10.65;;;;;;;;;;5013969;28;20473;-70
2022/10/17 04:20:47;;;;;;;15.05;10.48;;;;;;;;;;5031950;28;20524;-70
2022/10/17 04:23:13;;;;;;;14.90;10.48;;;;;;;;;;5007179;28;20108;-70
2022/10/17 04:25:39;;;;;;;15.40;11.52;;;;;;;;;;5012120;28;20046;-70
2022/10/17 04:28:05;;;;;;;18.67;11.27;;;;;;;;;;5010656;28;20050;-70
2022/10/17 04:30:31;;;;;;;16.92;11.38;;;;;;;;;;5011090;28;20038;-70
2022/10/17 04:32:57;;;;;;;18.42;11.65;;;;;;;;;;5011648;28;20038;-70
2022/10/17 04:35:23;;;;;;;14.90;11.07;;;;;;;;;;5012136;28;20069;-70
2022/10/17 04:37:49;;;;;;;16.92;11.45;;;;;;;;;;4994325;28;20042;-70
2022/10/17 04:40:15;;;;;;;20.00;11.75;;;;;;;;;;5011750;28;20052;-70
2022/10/17 04:42:41;;;;;;;16.92;11.80;;;;;;;;;;5010628;28;20076;-71
2022/10/17 04:45:08;;;;;;;16.48;11.02;;;;;;;;;;5010587;28;20034;-71
2022/10/17 04:47:34;;;;;;;16.17;12.13;;;;;;;;;;5010045;28;20049;-71
2022/10/17 04:50:00;;;;;;;20.50;12.75;;;;;;;;;;4993003;28;20049;-70
2022/10/17 04:52:26;;;;;;;19.27;11.70;;;;;;;;;;5011734;28;20044;-70
2022/10/17 04:54:52;;;;;;;19.10;12.63;;;;;;;;;;5010339;28;20037;-70
2022/10/17 04:57:18;;;;;;;20.35;12.50;;;;;;;;;;4991718;28;20046;-70
2022/10/17 04:59:45;;;;;;;15.35;12.10;;;;;;;;;;5010644;28;20038;-70
2022/10/17 05:02:11;;;;;;;15.93;12.10;;;;;;;;;;5011781;28;20063;-70
2022/10/17 05:04:37;;;;;;;19.50;12.82;;;;;;;;;;5011629;28;20045;-70
2022/10/17 05:07:03;;;;;;;16.90;12.75;;;;;;;;;;5009380;28;20125;-70
2022/10/17 05:09:29;;;;;;;21.45;13.77;;;;;;;;;;5011682;28;20367;-70
2022/10/17 05:11:55;;;;;;;21.27;13.77;;;;;;;;;;5010187;28;20046;-70
2022/10/17 05:14:22;;;;;;;21.30;12.65;;;;;;;;;;4994170;28;20120;-70
2022/10/17 05:16:48;;;;;;;18.45;13.70;;;;;;;;;;5010675;28;20050;-70
2022/10/17 05:19:14;;;;;;;24.67;14.77;;;;;;;;;;5010159;28;20042;-70
2022/10/17 05:21:40;;;;;;;19.65;13.77;;;;;;;;;;5010192;28;20038;-70
2022/10/17 05:24:10;;;;;;;16.42;13.00;;;;;;;;;;5012657;28;20057;-70
2022/10/17 05:26:36;;;;;;;21.25;14.07;;;;;;;;;;5014002;28;20049;-70
2022/10/17 05:29:03;;;;;;;22.58;13.30;;;;;;;;;;5014001;28;20501;-70
2022/10/17 05:31:29;;;;;;;18.27;13.35;;;;;;;;;;5014303;28;20125;-70
2022/10/17 05:33:56;;;;;;;21.55;14.23;;;;;;;;;;5014069;28;20092;-70
2022/10/17 05:36:22;;;;;;;21.20;14.18;;;;;;;;;;5014193;28;20046;-70
2022/10/17 05:38:49;;;;;;;21.45;13.82;;;;;;;;;;4996076;28;20042;-70
2022/10/17 05:41:15;;;;;;;16.58;13.38;;;;;;;;;;5014225;28;20050;-70
2022/10/17 05:43:41;;;;;;;20.52;13.38;;;;;;;;;;5014164;28;20450;-70
2022/10/17 05:46:07;;;;;;;21.13;13.15;;;;;;;;;;5013890;28;20057;-70
2022/10/17 05:48:34;;;;;;;19.55;14.27;;;;;;;;;;5012364;28;20034;-70
2022/10/17 05:51:04;;;;;;;18.35;13.38;;;;;;;;;;5013541;28;20104;-70
2022/10/17 05:53:31;;;;;;;20.70;14.02;;;;;;;;;;5013426;28;20394;-70
2022/10/17 05:56:01;;;;;;;18.00;13.25;;;;;;;;;;5013490;28;20034;-70
2022/10/17 05:58:28;;;;;;;20.73;13.32;;;;;;;;;;4996016;28;20121;-70
2022/10/17 06:01:00;;;;;;;18.92;13.07;;;;;;;;;;5012858;28;20046;-70
2022/10/17 06:03:26;;;;;;;17.00;13.05;;;;;;;;;;5014121;28;20397;-70
2022/10/17 06:05:52;;;;;;;19.05;12.65;;;;;;;;;;5014716;28;20045;-70
2022/10/17 06:08:19;;;;;;;18.90;12.40;;;;;;;;;;4996055;28;20045;-70
2022/10/17 06:10:48;;;;;;;21.90;12.75;;;;;;;;;;5012865;28;20104;-70
2022/10/17 06:13:15;;;;;;;20.25;13.38;;;;;;;;;;5012759;28;20037;-70
2022/10/17 06:15:41;;;;;;;24.20;13.52;;;;;;;;;;5014527;28;20516;-70
2022/10/17 06:18:07;;;;;;;18.63;12.95;;;;;;;;;;5013424;28;20041;-70
2022/10/17 06:20:33;;;;;;;20.15;13.40;;;;;;;;;;5013312;28;20038;-70
2022/10/17 06:23:00;;;;;;;23.65;13.60;;;;;;;;;;5013216;28;20054;-70
2022/10/17 06:25:26;;;;;;;17.45;11.85;;;;;;;;;;5014504;28;20068;-70
2022/10/17 06:27:52;;;;;;;23.38;13.63;;;;;;;;;;5014483;28;20038;-75
2022/10/17 06:30:18;;;;;;;18.20;13.50;;;;;;;;;;5013185;28;20107;-70
2022/10/17 06:32:44;;;;;;;21.17;13.15;;;;;;;;;;5012757;28;20037;-70
2022/10/17 06:35:10;;;;;;;20.02;12.98;;;;;;;;;;4994928;28;20045;-70
2022/10/17 06:37:36;;;;;;;20.90;12.70;;;;;;;;;;5013979;28;20184;-70
2022/10/17 06:40:03;;;;;;;19.77;12.98;;;;;;;;;;5013938;28;20098;-70
2022/10/17 06:42:29;;;;;;;21.15;13.43;;;;;;;;;;5013076;28;20131;-70
2022/10/17 06:44:55;;;;;;;20.50;13.70;;;;;;;;;;5012818;28;20041;-70
2022/10/17 06:47:21;;;;;;;19.00;12.43;;;;;;;;;;5013044;28;20061;-70
2022/10/17 06:49:48;;;;;;;20.92;13.70;;;;;;;;;;5012789;28;20042;-70
2022/10/17 06:52:15;;;;;;;17.58;12.45;;;;;;;;;;5012623;28;20080;-70
2022/10/17 06:54:42;;;;;;;17.58;11.73;;;;;;;;;;5014156;28;20152;-70
2022/10/17 06:57:08;;;;;;;21.52;12.75;;;;;;;;;;5029186;28;20478;-70
2022/10/17 06:59:34;;;;;;;17.60;12.18;;;;;;;;;;5012862;28;20038;-71
2022/10/17 07:02:00;;;;;;;16.40;11.93;;;;;;;;;;5012684;28;20048;-70
2022/10/17 07:04:26;;;;;;;21.38;13.10;;;;;;;;;;5012955;28;20124;-70
2022/10/17 07:06:53;;;;;;;20.77;12.15;;;;;;;;;;5013842;28;20050;-70
2022/10/17 07:09:19;;;;;;;19.45;12.05;;;;;;;;;;5012609;28;20046;-70
2022/10/17 07:11:46;;;;;;;18.80;12.20;;;;;;;;;;5013762;28;20058;-71
2022/10/17 07:14:12;;;;;;;19.20;12.07;;;;;;;;;;4991284;28;20065;-70
2022/10/17 07:16:38;;;;;;;19.70;12.00;;;;;;;;;;5012542;28;20040;-70
2022/10/17 07:19:04;;;;;;;18.95;12.40;;;;;;;;;;5012769;28;20161;-70
2022/10/17 07:21:31;;;;;;;17.48;12.00;;;;;;;;;;4995328;28;20046;-71
2022/10/17 07:23:57;;;;;;;18.35;11.60;;;;;;;;;;5027410;28;20065;-72
2022/10/17 07:26:24;;;;;;;18.23;11.57;;;;;;;;;;5033384;28;20037;-71
2022/10/17 07:28:52;;;;;;;24.02;11.48;;;;;;;;;;5015596;28;20412;-71
2022/10/17 07:31:18;;;;;;;15.82;11.20;;;;;;;;;;5032792;28;20059;-71
2022/10/17 07:33:45;;;;;;;17.60;11.38;;;;;;;;;;5033177;28;20556;-71
2022/10/17 07:36:11;;;;;;;16.80;11.30;;;;;;;;;;5032977;28;20133;-71
2022/10/17 07:38:38;;;;;;;15.45;11.07;;;;;;;;;;5015036;28;20397;-71
2022/10/17 07:41:05;;;;;;;15.20;10.60;;;;;;;;;;5015188;28;20498;-71
2022/10/17 07:43:32;;;;;;;19.83;11.68;;;;;;;;;;5032921;28;20037;-71
2022/10/17 07:45:58;;;;;;;18.83;11.35;;;;;;;;;;5014253;28;20045;-71
2022/10/17 07:48:24;;;;;;;18.15;10.85;;;;;;;;;;5014933;28;20049;-71
2022/10/17 07:50:50;;;;;;;17.17;11.10;;;;;;;;;;5032533;28;20045;-70
2022/10/17 07:53:16;;;;;;;14.75;11.00;;;;;;;;;;5014814;28;20093;-70
2022/10/17 07:55:45;;;;;;;18.15;11.50;;;;;;;;;;5014791;28;20091;-70
2022/10/17 07:58:11;;;;;;;20.38;10.73;;;;;;;;;;5031476;28;20142;-70
2022/10/17 08:00:37;;;;;;;17.05;10.68;;;;;;;;;;5032768;28;20053;-70
2022/10/17 08:03:03;;;;;;;21.88;11.13;;;;;;;;;;5032250;28;20038;-70
2022/10/17 08:05:30;;;;;;;21.73;11.25;;;;;;;;;;5032894;28;20485;-71
2022/10/17 08:07:56;;;;;;;15.63;10.50;;;;;;;;;;5032097;28;20036;-73
2022/10/17 08:10:26;;;;;;;15.77;10.80;;;;;;;;;;4997214;28;20045;-70
2022/10/17 08:12:56;;;;;;;15.77;10.38;;;;;;;;;;5029878;28;20068;-70
2022/10/17 08:15:23;;;;;;;21.05;11.18;;;;;;;;;;5032166;28;20033;-70
2022/10/17 08:17:49;;;;;;;15.10;11.02;;;;;;;;;;5014235;28;20049;-70
2022/10/17 08:20:15;;;;;;;18.88;11.35;;;;;;;;;;5012042;28;20052;-70
2022/10/17 08:22:41;;;;;;;17.70;11.40;;;;;;;;;;5031788;28;20053;-70
2022/10/17 08:25:08;;;;;;;16.73;10.65;;;;;;;;;;5032219;28;20410;-70
2022/10/17 08:27:34;;;;;;;18.25;11.20;;;;;;;;;;5014365;28;20033;-70
2022/10/17 08:30:00;;;;;;;20.98;11.00;;;;;;;;;;5014240;28;20043;-70
2022/10/17 08:32:27;;;;;;;17.75;10.75;;;;;;;;;;5012247;28;20495;-70
2022/10/17 08:34:54;;;;;;;16.67;10.95;;;;;;;;;;4998224;28;20477;-70
2022/10/17 08:37:20;;;;;;;16.25;11.40;;;;;;;;;;4998113;28;20116;-70
2022/10/17 08:39:46;;;;;;;15.32;11.23;;;;;;;;;;5014773;28;20041;-70
2022/10/17 08:42:12;;;;;;;19.92;11.02;;;;;;;;;;5014705;28;20073;-70
2022/10/17 08:44:49;;;;;;;18.80;11.57;;;;;;;;;;5014545;28;20049;-70
2022/10/17 08:47:26;;;;;;;17.65;11.02;;;;;;;;;;5015389;28;20048;-69
2022/10/17 08:49:54;;;;;;;13.70;10.50;;;;;;;;;;4998904;28;20108;-70
2022/10/17 08:52:36;;;;;;;17.88;10.75;;;;;;;;;;5014281;28;20041;-70
2022/10/17 08:55:03;;;;;;;19.35;10.32;;;;;;;;;;5015187;28;20396;-70
2022/10/17 08:57:29;;;;;;;17.33;10.93;;;;;;;;;;5032878;28;20120;-70
2022/10/17 08:59:56;;;;;;;16.65;10.63;;;;;;;;;;5019591;28;20096;-70
2022/10/17 09:03:01;;;;;;;16.25;10.20;;;;;;;;;;5036572;28;20037;-70
2022/10/17 09:05:27;;;;;;;21.88;12.07;;;;;;;;;;4937099;29;20040;-70
2022/10/17 09:08:11;;;;;;;18.65;11.55;;;;;;;;;;4921544;29;20064;-70
2022/10/17 09:10:45;;;;;;;18.75;11.65;;;;;;;;;;4968683;28;20119;-70
2022/10/17 09:13:14;;;;;;;17.83;11.10;;;;;;;;;;5027065;28;20037;-70
2022/10/17 09:15:56;;;;;;;19.33;11.75;;;;;;;;;;5036607;28;20033;-72
2022/10/17 09:18:31;;;;;;;15.30;10.85;;;;;;;;;;5018917;28;20041;-69
2022/10/17 09:21:05;;;;;;;23.02;10.65;;;;;;;;;;5016678;28;20046;-69
2022/10/17 09:23:36;;;;;;;19.42;10.88;;;;;;;;;;4999494;28;20383;-69
2022/10/17 09:26:02;;;;;;;22.85;11.63;;;;;;;;;;4999303;28;20398;-69
2022/10/17 09:28:36;;;;;;;17.92;11.02;;;;;;;;;;5016607;28;20045;-69
2022/10/17 09:31:04;;;;;;;15.10;10.85;;;;;;;;;;4999055;28;20053;-69
2022/10/17 09:33:36;;;;;;;16.58;10.57;;;;;;;;;;5016668;28;20037;-69
2022/10/17 09:36:10;;;;;;;18.95;11.10;;;;;;;;;;4999102;28;20046;-69
2022/10/17 09:38:38;;;;;;;22.20;11.50;;;;;;;;;;4999935;28;20080;-70
2022/10/17 09:41:06;;;;;;;20.02;11.45;;;;;;;;;;5018897;28;20107;-70
2022/10/17 09:43:32;;;;;;;17.90;11.10;;;;;;;;;;5036316;28;20060;-69
2022/10/17 09:46:15;;;;;;;15.70;10.60;;;;;;;;;;5036257;28;20045;-69
2022/10/17 09:48:41;;;;;;;;;;;;;;;;;;5019111;28;20045;-70
2022/10/17 09:51:07;;;;;;;18.92;11.27;;;;;;;;;;5018278;28;20327;-70
2022/10/17 09:53:36;;;;;;;17.88;11.65;;;;;;;;;;5018325;28;20489;-69
2022/10/17 09:56:03;;;;;;;18.85;11.80;;;;;;;;;;5036088;28;20049;-69
2022/10/17 09:58:43;;;;;;;19.85;11.10;;;;;;;;;;5018207;28;20481;-69
2022/10/17 10:01:41;;;;;;;21.10;12.05;;;;;;;;;;5018291;28;20049;-69
2022/10/17 10:04:08;;;;;;;18.02;10.98;;;;;;;;;;4986361;28;20057;-69
2022/10/17 10:06:34;;;;;;;17.95;11.88;;;;;;;;;;5017909;28;20050;-69
2022/10/17 10:09:05;;;;;;;19.63;11.00;;;;;;;;;;5034851;28;20042;-69
2022/10/17 10:11:48;;;;;;;18.80;11.63;;;;;;;;;;5034541;28;20112;-69
2022/10/17 10:14:32;;;;;;;23.27;11.55;;;;;;;;;;5035695;28;20045;-69
2022/10/17 10:16:58;;;;;;;20.17;11.52;;;;;;;;;;5026626;28;20052;-69
2022/10/17 10:19:29;;;;;;;20.90;11.05;;;;;;;;;;5018165;28;20045;-69
2022/10/17 10:22:00;;;;;;;18.90;11.25;;;15.70;99.90;;;;;;5035613;28;20041;-69
2022/10/17 10:24:27;;;;;;;17.45;11.48;;;;;;;;;;5017666;28;20061;-69
2022/10/17 10:26:55;;;;;;;20.23;12.52;;;;;;;;;;5017762;28;20057;-69
2022/10/17 10:29:21;;;;;;;18.88;11.40;;;;;;;;;;5018083;28;20045;-69
2022/10/17 10:31:47;;;;;;;23.40;11.40;;;;;;;;;;5017570;28;20046;-69
2022/10/17 10:34:13;;;;;;;20.17;11.30;;;;;;;;;;5017498;28;20485;-69
2022/10/17 10:36:44;;;;;;;23.08;12.02;;;;;;;;;;5035635;28;20474;-69
2022/10/17 10:39:19;;;;;;;19.02;11.77;;;;;;;;;;5035046;28;20049;-69
2022/10/17 10:41:46;;;;;;;18.83;11.15;;;;;;;;;;5017591;28;20057;-69
2022/10/17 10:44:14;;;;;;;19.52;11.40;;;;;;;;;;5035201;28;20095;-69
2022/10/17 10:46:40;;;;;;;22.10;12.15;;;;;;;;;;5034993;28;20073;-69
2022/10/17 10:49:26;;;;;;;21.15;12.52;;;;;;;;;;5035047;28;20045;-69
2022/10/17 10:51:52;;;;;;;17.60;12.30;;;;;;;;;;5035280;28;20037;-69
2022/10/17 10:54:28;;;;;;;20.63;11.68;;;;;;;;;;5016675;28;20481;-69
2022/10/17 10:56:59;;;;;;;20.95;12.63;;;;;;;;;;5034857;28;20036;-69
2022/10/17 10:59:31;;;;;;;22.05;12.10;;;;;;;;;;5017101;28;20103;-70
2022/10/17 11:02:01;;;;;;;17.95;11.50;;;;;;;;;;5034795;28;20056;-70
2022/10/17 11:04:33;;;;;;;21.50;11.32;;;;;;;;;;5016346;28;20076;-70
2022/10/17 11:07:12;;;;;;;18.80;11.98;;;;;;;;;;5016785;28;20042;-70
2022/10/17 11:09:53;;;;;;;19.95;11.52;;;;;;;;;;5034700;28;20045;-70
2022/10/17 11:12:22;;;;;;;19.38;11.20;;;;;;;;;;5015105;28;20050;-69
2022/10/17 11:15:20;;;;;;;21.23;11.32;;;;;;;;;;5033819;28;20043;-69
2022/10/17 11:17:55;;;;;;;20.27;12.07;;;;;;;;;;5033811;28;20052;-70
2022/10/17 11:21:04;;;;;;;21.55;12.20;;;15.90;99.90;;;;;;5015652;28;20052;-70
2022/10/17 11:23:42;;;;;;;17.75;11.82;;;;;;;;;;5024801;28;20196;-69
2022/10/17 11:26:24;;;;;;;18.77;11.13;;;15.90;99.90;;;;;;5016556;28;20440;-69
2022/10/17 11:28:52;;;;;;;19.85;11.45;;;;;;;;;;5016575;28;20124;-69
2022/10/17 11:31:19;;;;;;;18.70;11.20;;;;;;;;;;5016713;28;20056;-69
2022/10/17 11:33:48;;;;;;;20.45;11.65;;;;;;;;;;4999874;28;20045;-69
2022/10/17 11:36:16;;;;;;;18.63;10.48;;;;;;;;;;5033477;28;20366;-69
2022/10/17 11:38:51;;;;;;;14.27;9.82;;;;;;;;;;5013678;28;20065;-69
2022/10/17 11:41:20;;;;;;;15.77;10.52;;;;;;;;;;5031849;28;20033;-69
2022/10/17 11:43:54;;;;;;;14.98;10.05;;;;;;;;;;5015762;28;20136;-69
2022/10/17 11:46:25;;;;;;;16.92;10.35;;;;;;;;;;5043822;28;20037;-69
2022/10/17 11:48:57;;;;;;;17.92;11.05;;;;;;;;;;5031341;28;20033;-69
2022/10/17 11:51:23;;;;;;;18.20;10.48;;;;;;;;;;5032614;28;20363;-69
2022/10/17 11:53:49;;;;;;;15.38;9.95;;;;;;;;;;5032665;28;20037;-69
2022/10/17 11:56:19;;;;;;;21.10;10.10;;;;;;;;;;5015200;28;20044;-70
2022/10/17 11:59:01;;;;;;;18.10;10.85;;;;;;;;;;5014839;28;20041;-70
2022/10/17 12:01:46;;;;;;;18.08;9.57;;;;;;;;;;5032540;28;20350;-70
2022/10/17 12:04:19;;;;;;;18.27;10.45;;;;;;;;;;5029908;28;20385;-70
2022/10/17 12:06:50;;;;;;;18.55;9.70;;;;;;;;;;5014620;28;20080;-70
2022/10/17 12:09:19;;;;;;;18.07;10.33;;;;;;;;;;5032414;28;20033;-69
2022/10/17 12:11:52;;;;;;;16.70;10.10;;;;;;;;;;5014692;28;20311;-69
2022/10/17 12:14:41;;;;;;;19.58;9.80;;;16.00;99.90;;;;;;4995650;28;20034;-70
2022/10/17 12:17:25;;;;;;;16.35;9.95;;;;;;;;;;4996675;28;20073;-69
2022/10/17 12:19:51;;;;;;;18.23;9.25;;;;;;;;;;5030821;28;20073;-75
2022/10/17 12:22:23;;;;;;;18.98;9.88;;;;;;;;;;5014523;28;20552;-73
2022/10/17 12:24:57;;;;;;;17.95;10.45;;;;;;;;;;5014367;28;20072;-69
2022/10/17 12:27:33;;;;;;;16.95;9.98;;;;;;;;;;5032045;28;20045;-69
2022/10/17 12:30:00;;;;;;;15.55;8.68;;;;;;;;;;4998115;28;20051;-69
2022/10/17 12:32:26;;;;;;;15.57;9.40;;;;;;;;;;5031603;28;20081;-70
2022/10/17 12:34:53;;;;;;;19.48;9.38;;;;;;;;;;5029558;28;20112;-69
2022/10/17 12:37:44;;;;;;;17.15;9.73;;;16.10;99.90;;;;;;4998263;28;20116;-69
2022/10/17 12:40:51;;;;;;;14.52;8.32;;;;;;;;;;5013973;28;20038;-70
2022/10/17 12:43:17;;;;;;;14.02;8.60;;;;;;;;;;4932079;29;20039;-70
2022/10/17 12:45:50;;;;;;;16.75;8.93;;;;;;;;;;5014358;28;20410;-69
2022/10/17 12:48:41;;;;;;;15.30;8.18;;;16.10;99.90;;;;;;5014298;28;20045;-70
2022/10/17 12:51:10;;;;;;;15.55;8.10;;;;;;;;;;5031398;28;20069;-70
2022/10/17 12:53:54;;;;;;;14.40;7.88;;;;;;;;;;5014381;28;20045;-70
2022/10/17 12:56:29;;;;;;;17.33;7.90;;;;;;;;;;5031454;28;20099;-69
2022/10/17 12:58:56;;;;;;;14.32;8.02;;;;;;;;;;5013971;28;20084;-69
2022/10/17 13:01:28;;;;;;;11.30;7.50;;;;;;;;;;5013963;28;20052;-69
2022/10/17 13:03:54;;;;;;;13.23;7.13;;;;;;;;;;5031712;28;20037;-69
2022/10/17 13:06:25;;;;;;;14.43;6.82;;;;;;;;;;5031446;28;20491;-69
2022/10/17 13:08:56;;;;;;;13.07;6.57;;;;;;;;;;5031711;28;20394;-69
2022/10/17 13:11:25;;;;;;;13.38;6.55;;;16.50;99.90;;;;;;5031095;28;20049;-69
2022/10/17 13:13:53;;;;;;;14.75;5.43;;;;;;;;;;5013658;28;20034;-70
2022/10/17 13:16:32;;;;;;;10.32;5.78;;;;;;;;;;5013340;28;20077;-70
2022/10/17 13:19:00;;;;;;;8.65;5.75;;;;;;;;;;5013123;28;20466;-70
2022/10/17 13:21:26;;;;;;;10.50;5.93;;;;;;;;;;5013623;28;20029;-70
2022/10/17 13:23:53;;;;;;;12.63;6.00;;;;;;;;;;5013606;28;20065;-70
2022/10/17 13:26:25;;;;;;;12.35;5.53;;;;;;;;;;4981093;28;20849;-69
2022/10/17 13:28:51;;;;;;;;;;;;;;;;;;5013730;28;20045;-69
2022/10/17 13:31:36;;;;;;;13.25;5.85;;;;;;;;;;5029471;28;19928;-70
2022/10/17 13:34:05;;;;;;;13.48;5.22;;;16.20;99.90;;;;;;4995881;28;20041;-70
2022/10/17 13:36:32;;;;;;;9.43;4.88;;;;;;;;;;5014856;28;20113;-70
2022/10/17 13:39:03;;;;;;;9.35;5.03;;;16.30;99.90;;;;;;5013597;28;20099;-70
2022/10/17 13:41:33;;;;;;;13.98;4.93;;;;;;;;;;5014349;28;20119;-69
2022/10/17 13:44:00;;;;;;;12.95;5.60;;;;;;;;;;5033211;28;20123;-69
2022/10/17 13:46:30;;;;;;;14.60;5.13;;;16.40;99.90;;;;;;5018186;28;20037;-69
2022/10/17 13:49:00;;;;;;;8.77;5.03;;;;;;;;;;5036197;28;20051;-70
2022/10/17 13:51:27;;;;;;;12.55;4.75;;;;;;;;;;5035719;28;20080;-70
2022/10/17 13:53:53;;;;;;;8.95;4.80;;;;;;;;;;5035741;28;20045;-70
2022/10/17 13:56:23;;;;;;;12.85;5.03;;;16.20;99.90;;;;;;5017880;28;20037;-70
2022/10/17 13:59:03;;;;;;;11.45;4.30;;;16.40;99.90;;;;;;5001874;28;20040;-70
2022/10/17 14:01:30;;;;;;;8.52;5.00;;;;;;;;;;5017911;28;20045;-70
2022/10/17 14:03:56;;;;;;;12.60;4.57;;;;;;;;;;5018164;28;20041;-70
2022/10/17 14:06:30;;;;;;;9.27;4.47;;;;;;;;;;5035424;28;20037;-70
2022/10/17 14:08:56;;;;;;;8.77;4.15;;;;;;;;;;5017108;28;20485;-69
2022/10/17 14:11:22;;;;;;;37.95;7.22;;;;;;;;;;5016566;28;20049;-73
2022/10/17 14:13:49;;;;;;;12.45;4.53;;;;;;;;;;5016466;28;20037;-70
2022/10/17 14:16:15;;;;;;;11.98;3.90;;;;;;;;;;5017724;28;20038;-70
2022/10/17 14:18:46;;;;;;;7.53;3.72;;;;;;;;;;5017401;28;20033;-70
2022/10/17 14:21:18;;;;;;;8.52;4.60;;;;;;;;;;5017446;28;20052;-70
2022/10/17 14:23:44;;;;;;;14.13;5.07;;;;;;;;;;5035198;28;20397;-70
2022/10/17 14:26:20;;;;;;;15.88;4.10;;;;;;;;;;5017702;28;20122;-69
2022/10/17 14:29:04;;;;;;;9.30;4.30;;;;;;;;;;5017702;28;20049;-69
2022/10/17 14:31:31;;;;;;;11.18;3.97;;;;;;;;;;5017505;28;20041;-69
2022/10/17 14:33:59;;;;;;;11.00;3.88;;;;;;;;;;5035201;28;20046;-69
2022/10/17 14:36:37;;;;;;;9.35;4.03;;;;;;;;;;5015618;28;20103;-69